sensor_id;sensor_type;location;lat;lon;timestamp;temperature;humidity
37794;DHT22;23632;48.826;15.176;2022-11-02T00:01:57;23.80;66.50
37794;DHT22;23632;48.826;15.176;2022-11-02T00:04:24;23.80;66.40
37794;DHT22;23632;48.826;15.176;2022-11-02T00:06:51;23.80;66.50
37794;DHT22;23632;48.826;15.176;2022-11-02T00:09:19;23.80;66.50
37794;DHT22;23632;48.826;15.176;2022-11-02T00:11:46;23.80;66.50
37794;DHT22;23632;48.826;15.176;2022-11-02T00:14:13;23.80;66.50
37794;DHT22;23632;48.826;15.176;2022-11-02T00:16:40;23.80;66.50
37794;DHT22;23632;48.826;15.176;2022-11-02T00:19:08;23.80;66.50
37794;DHT22;23632;48.826;15.176;2022-11-02T00:21:36;23.80;66.50
37794;DHT22;23632;48.826;15.176;2022-11-02T00:24:04;23.80;66.50
37794;DHT22;23632;48.826;15.176;2022-11-02T00:26:34;23.80;66.40
37794;DHT22;23632;48.826;15.176;2022-11-02T00:29:03;23.80;66.40
37794;DHT22;23632;48.826;15.176;2022-11-02T00:31:31;23.80;66.50
37794;DHT22;23632;48.826;15.176;2022-11-02T00:33:58;23.80;66.50
37794;DHT22;23632;48.826;15.176;2022-11-02T00:36:27;23.80;66.50
37794;DHT22;23632;48.826;15.176;2022-11-02T00:38:55;23.80;66.40
37794;DHT22;23632;48.826;15.176;2022-11-02T00:41:22;23.80;66.40
37794;DHT22;23632;48.826;15.176;2022-11-02T00:43:49;23.80;66.50
37794;DHT22;23632;48.826;15.176;2022-11-02T00:46:16;23.80;66.50
37794;DHT22;23632;48.826;15.176;2022-11-02T00:48:44;23.80;66.50
37794;DHT22;23632;48.826;15.176;2022-11-02T00:51:11;23.80;66.50
37794;DHT22;23632;48.826;15.176;2022-11-02T00:53:41;23.80;66.50
37794;DHT22;23632;48.826;15.176;2022-11-02T00:56:09;23.80;66.50
37794;DHT22;23632;48.826;15.176;2022-11-02T00:58:37;23.80;66.50
37794;DHT22;23632;48.826;15.176;2022-11-02T01:01:06;23.80;67.40
37794;DHT22;23632;48.826;15.176;2022-11-02T01:03:35;23.80;66.40
37794;DHT22;23632;48.826;15.176;2022-11-02T01:06:13;23.80;66.40
37794;DHT22;23632;48.826;15.176;2022-11-02T01:08:41;23.80;66.50
37794;DHT22;23632;48.826;15.176;2022-11-02T01:11:28;23.80;66.40
37794;DHT22;23632;48.826;15.176;2022-11-02T01:13:55;23.80;66.40
37794;DHT22;23632;48.826;15.176;2022-11-02T01:16:23;23.80;66.50
37794;DHT22;23632;48.826;15.176;2022-11-02T01:18:52;23.80;66.40
37794;DHT22;23632;48.826;15.176;2022-11-02T01:21:20;23.80;66.40
37794;DHT22;23632;48.826;15.176;2022-11-02T01:23:48;23.80;66.40
37794;DHT22;23632;48.826;15.176;2022-11-02T01:26:15;23.80;66.50
37794;DHT22;23632;48.826;15.176;2022-11-02T01:28:43;23.80;66.40
37794;DHT22;23632;48.826;15.176;2022-11-02T01:31:11;23.80;66.50
37794;DHT22;23632;48.826;15.176;2022-11-02T01:33:43;23.80;66.50
37794;DHT22;23632;48.826;15.176;2022-11-02T01:36:13;23.80;66.40
37794;DHT22;23632;48.826;15.176;2022-11-02T01:38:41;23.80;66.40
37794;DHT22;23632;48.826;15.176;2022-11-02T01:41:10;23.80;66.40
37794;DHT22;23632;48.826;15.176;2022-11-02T01:43:53;23.80;66.50
37794;DHT22;23632;48.826;15.176;2022-11-02T01:46:27;23.70;66.40
37794;DHT22;23632;48.826;15.176;2022-11-02T01:49:08;23.80;66.40
37794;DHT22;23632;48.826;15.176;2022-11-02T01:51:58;23.80;66.50
37794;DHT22;23632;48.826;15.176;2022-11-02T01:54:36;23.80;66.30
37794;DHT22;23632;48.826;15.176;2022-11-02T01:57:09;23.80;66.30
37794;DHT22;23632;48.826;15.176;2022-11-02T01:59:54;23.80;66.40
37794;DHT22;23632;48.826;15.176;2022-11-02T02:02:26;23.80;66.40
37794;DHT22;23632;48.826;15.176;2022-11-02T02:05:01;23.70;66.40
37794;DHT22;23632;48.826;15.176;2022-11-02T02:07:33;23.70;66.30
37794;DHT22;23632;48.826;15.176;2022-11-02T02:10:02;23.70;66.30
37794;DHT22;23632;48.826;15.176;2022-11-02T02:12:33;23.70;66.40
37794;DHT22;23632;48.826;15.176;2022-11-02T02:15:03;23.70;66.30
37794;DHT22;23632;48.826;15.176;2022-11-02T02:23:33;23.70;66.10
37794;DHT22;23632;48.826;15.176;2022-11-02T02:35:51;23.70;66.00
37794;DHT22;23632;48.826;15.176;2022-11-02T02:38:40;23.70;66.10
37794;DHT22;23632;48.826;15.176;2022-11-02T02:41:23;23.70;66.00
37794;DHT22;23632;48.826;15.176;2022-11-02T02:43:54;23.70;66.20
37794;DHT22;23632;48.826;15.176;2022-11-02T02:46:28;23.70;66.20
37794;DHT22;23632;48.826;15.176;2022-11-02T02:49:29;23.70;66.20
37794;DHT22;23632;48.826;15.176;2022-11-02T02:52:02;23.70;66.20
37794;DHT22;23632;48.826;15.176;2022-11-02T02:54:36;23.70;66.20
37794;DHT22;23632;48.826;15.176;2022-11-02T02:57:17;23.70;66.30
37794;DHT22;23632;48.826;15.176;2022-11-02T02:59:47;23.60;66.10
37794;DHT22;23632;48.826;15.176;2022-11-02T03:04:48;23.70;66.10
37794;DHT22;23632;48.826;15.176;2022-11-02T03:07:20;23.70;66.10
37794;DHT22;23632;48.826;15.176;2022-11-02T03:10:17;23.60;66.00
37794;DHT22;23632;48.826;15.176;2022-11-02T03:13:16;23.70;66.00
37794;DHT22;23632;48.826;15.176;2022-11-02T03:16:22;23.60;66.10
37794;DHT22;23632;48.826;15.176;2022-11-02T03:21:52;23.70;66.10
37794;DHT22;23632;48.826;15.176;2022-11-02T03:24:42;23.60;66.00
37794;DHT22;23632;48.826;15.176;2022-11-02T03:27:51;23.60;66.00
37794;DHT22;23632;48.826;15.176;2022-11-02T03:30:26;23.60;66.00
37794;DHT22;23632;48.826;15.176;2022-11-02T03:33:06;23.60;66.00
37794;DHT22;23632;48.826;15.176;2022-11-02T03:38:40;23.60;66.00
37794;DHT22;23632;48.826;15.176;2022-11-02T03:41:08;23.60;66.10
37794;DHT22;23632;48.826;15.176;2022-11-02T03:43:38;23.60;66.10
37794;DHT22;23632;48.826;15.176;2022-11-02T03:46:09;23.60;66.00
37794;DHT22;23632;48.826;15.176;2022-11-02T03:48:46;23.60;66.90
37794;DHT22;23632;48.826;15.176;2022-11-02T03:51:20;23.60;66.00
37794;DHT22;23632;48.826;15.176;2022-11-02T03:54:10;23.60;66.00
37794;DHT22;23632;48.826;15.176;2022-11-02T03:56:45;23.60;65.90
37794;DHT22;23632;48.826;15.176;2022-11-02T03:59:15;23.60;66.00
37794;DHT22;23632;48.826;15.176;2022-11-02T04:01:49;23.60;66.10
37794;DHT22;23632;48.826;15.176;2022-11-02T04:04:20;23.60;66.00
37794;DHT22;23632;48.826;15.176;2022-11-02T04:06:47;23.60;66.10
37794;DHT22;23632;48.826;15.176;2022-11-02T04:09:16;23.60;66.00
37794;DHT22;23632;48.826;15.176;2022-11-02T04:11:44;23.60;66.00
37794;DHT22;23632;48.826;15.176;2022-11-02T04:14:31;23.60;66.00
37794;DHT22;23632;48.826;15.176;2022-11-02T04:17:11;23.60;65.90
37794;DHT22;23632;48.826;15.176;2022-11-02T04:20:09;23.60;66.00
37794;DHT22;23632;48.826;15.176;2022-11-02T04:22:37;23.60;65.90
37794;DHT22;23632;48.826;15.176;2022-11-02T04:25:24;23.60;66.90
37794;DHT22;23632;48.826;15.176;2022-11-02T04:27:54;23.60;65.90
37794;DHT22;23632;48.826;15.176;2022-11-02T04:30:27;23.60;66.40
37794;DHT22;23632;48.826;15.176;2022-11-02T04:32:57;23.60;65.90
37794;DHT22;23632;48.826;15.176;2022-11-02T04:35:49;23.60;65.90
37794;DHT22;23632;48.826;15.176;2022-11-02T04:38:18;23.60;65.90
37794;DHT22;23632;48.826;15.176;2022-11-02T04:41:04;23.60;65.90
37794;DHT22;23632;48.826;15.176;2022-11-02T04:43:55;23.60;65.80
37794;DHT22;23632;48.826;15.176;2022-11-02T04:46:25;23.60;65.90
37794;DHT22;23632;48.826;15.176;2022-11-02T04:48:54;23.50;65.80
37794;DHT22;23632;48.826;15.176;2022-11-02T04:51:23;23.50;66.70
37794;DHT22;23632;48.826;15.176;2022-11-02T04:53:53;23.60;65.90
37794;DHT22;23632;48.826;15.176;2022-11-02T04:56:23;23.50;65.80
37794;DHT22;23632;48.826;15.176;2022-11-02T04:58:53;23.50;65.80
37794;DHT22;23632;48.826;15.176;2022-11-02T05:01:24;23.50;65.80
37794;DHT22;23632;48.826;15.176;2022-11-02T05:03:54;23.50;65.80
37794;DHT22;23632;48.826;15.176;2022-11-02T05:06:24;23.50;65.80
37794;DHT22;23632;48.826;15.176;2022-11-02T05:08:54;23.50;65.80
37794;DHT22;23632;48.826;15.176;2022-11-02T05:11:22;23.50;65.80
37794;DHT22;23632;48.826;15.176;2022-11-02T05:13:50;23.50;65.80
37794;DHT22;23632;48.826;15.176;2022-11-02T05:16:18;23.50;65.80
37794;DHT22;23632;48.826;15.176;2022-11-02T05:18:49;23.50;65.80
37794;DHT22;23632;48.826;15.176;2022-11-02T05:21:18;23.60;65.90
37794;DHT22;23632;48.826;15.176;2022-11-02T05:23:47;23.50;65.80
37794;DHT22;23632;48.826;15.176;2022-11-02T05:26:15;23.50;65.70
37794;DHT22;23632;48.826;15.176;2022-11-02T05:28:46;23.50;65.70
37794;DHT22;23632;48.826;15.176;2022-11-02T05:31:13;23.50;65.70
37794;DHT22;23632;48.826;15.176;2022-11-02T05:33:41;23.50;65.70
37794;DHT22;23632;48.826;15.176;2022-11-02T05:36:13;23.50;65.70
37794;DHT22;23632;48.826;15.176;2022-11-02T05:38:45;23.50;65.70
37794;DHT22;23632;48.826;15.176;2022-11-02T05:41:12;23.50;65.60
37794;DHT22;23632;48.826;15.176;2022-11-02T05:43:41;23.50;66.50
37794;DHT22;23632;48.826;15.176;2022-11-02T05:46:11;23.50;65.70
37794;DHT22;23632;48.826;15.176;2022-11-02T05:48:40;23.50;65.70
37794;DHT22;23632;48.826;15.176;2022-11-02T05:51:09;23.50;65.60
37794;DHT22;23632;48.826;15.176;2022-11-02T05:53:36;23.50;65.70
37794;DHT22;23632;48.826;15.176;2022-11-02T05:56:05;23.50;65.70
37794;DHT22;23632;48.826;15.176;2022-11-02T05:58:33;23.50;65.60
37794;DHT22;23632;48.826;15.176;2022-11-02T06:01:02;23.50;65.70
37794;DHT22;23632;48.826;15.176;2022-11-02T06:03:31;23.50;65.70
37794;DHT22;23632;48.826;15.176;2022-11-02T06:06:00;23.50;65.60
37794;DHT22;23632;48.826;15.176;2022-11-02T06:08:33;23.50;65.60
37794;DHT22;23632;48.826;15.176;2022-11-02T06:11:11;23.50;65.60
37794;DHT22;23632;48.826;15.176;2022-11-02T06:13:40;23.50;65.60
37794;DHT22;23632;48.826;15.176;2022-11-02T06:16:09;23.50;65.60
37794;DHT22;23632;48.826;15.176;2022-11-02T06:18:38;23.50;65.60
37794;DHT22;23632;48.826;15.176;2022-11-02T06:21:05;23.50;65.60
37794;DHT22;23632;48.826;15.176;2022-11-02T06:23:33;23.50;65.60
37794;DHT22;23632;48.826;15.176;2022-11-02T06:26:01;23.50;65.70
37794;DHT22;23632;48.826;15.176;2022-11-02T06:28:29;23.50;65.70
37794;DHT22;23632;48.826;15.176;2022-11-02T06:30:57;23.50;65.70
37794;DHT22;23632;48.826;15.176;2022-11-02T06:33:25;23.50;65.70
37794;DHT22;23632;48.826;15.176;2022-11-02T06:35:53;23.50;65.70
37794;DHT22;23632;48.826;15.176;2022-11-02T06:38:21;23.50;65.70
37794;DHT22;23632;48.826;15.176;2022-11-02T06:41:02;23.50;65.70
37794;DHT22;23632;48.826;15.176;2022-11-02T06:43:33;23.50;65.70
37794;DHT22;23632;48.826;15.176;2022-11-02T06:46:04;23.50;65.70
37794;DHT22;23632;48.826;15.176;2022-11-02T06:48:32;23.50;66.50
37794;DHT22;23632;48.826;15.176;2022-11-02T06:51:02;23.50;65.70
37794;DHT22;23632;48.826;15.176;2022-11-02T06:53:31;23.50;65.60
37794;DHT22;23632;48.826;15.176;2022-11-02T06:55:58;23.50;65.70
37794;DHT22;23632;48.826;15.176;2022-11-02T06:58:26;23.50;65.70
37794;DHT22;23632;48.826;15.176;2022-11-02T07:01:02;23.50;65.70
37794;DHT22;23632;48.826;15.176;2022-11-02T07:03:33;23.50;65.70
37794;DHT22;23632;48.826;15.176;2022-11-02T07:06:01;23.50;65.70
37794;DHT22;23632;48.826;15.176;2022-11-02T07:08:28;23.50;65.70
37794;DHT22;23632;48.826;15.176;2022-11-02T07:10:56;23.50;65.70
37794;DHT22;23632;48.826;15.176;2022-11-02T07:13:23;23.50;65.60
37794;DHT22;23632;48.826;15.176;2022-11-02T07:15:52;23.60;65.70
37794;DHT22;23632;48.826;15.176;2022-11-02T07:18:21;23.60;65.70
37794;DHT22;23632;48.826;15.176;2022-11-02T07:20:48;23.50;65.70
37794;DHT22;23632;48.826;15.176;2022-11-02T07:23:16;23.50;65.70
37794;DHT22;23632;48.826;15.176;2022-11-02T07:25:43;23.60;65.90
37794;DHT22;23632;48.826;15.176;2022-11-02T07:28:10;23.50;65.70
37794;DHT22;23632;48.826;15.176;2022-11-02T07:30:37;23.60;65.80
37794;DHT22;23632;48.826;15.176;2022-11-02T07:33:05;23.60;65.70
37794;DHT22;23632;48.826;15.176;2022-11-02T07:35:32;23.60;65.70
37794;DHT22;23632;48.826;15.176;2022-11-02T07:38:03;23.60;65.70
37794;DHT22;23632;48.826;15.176;2022-11-02T07:40:33;23.60;65.70
37794;DHT22;23632;48.826;15.176;2022-11-02T07:43:01;23.60;65.70
37794;DHT22;23632;48.826;15.176;2022-11-02T07:45:49;23.60;65.70
37794;DHT22;23632;48.826;15.176;2022-11-02T07:48:16;23.60;65.70
37794;DHT22;23632;48.826;15.176;2022-11-02T07:50:44;23.60;65.70
37794;DHT22;23632;48.826;15.176;2022-11-02T07:53:11;23.60;65.70
37794;DHT22;23632;48.826;15.176;2022-11-02T07:55:40;23.60;65.70
37794;DHT22;23632;48.826;15.176;2022-11-02T07:58:10;23.60;65.70
37794;DHT22;23632;48.826;15.176;2022-11-02T08:00:40;23.60;66.60
37794;DHT22;23632;48.826;15.176;2022-11-02T08:03:09;23.60;66.60
37794;DHT22;23632;48.826;15.176;2022-11-02T08:05:39;23.60;65.60
37794;DHT22;23632;48.826;15.176;2022-11-02T08:08:11;23.70;65.70
37794;DHT22;23632;48.826;15.176;2022-11-02T08:10:41;23.70;65.80
37794;DHT22;23632;48.826;15.176;2022-11-02T08:13:11;23.70;65.70
37794;DHT22;23632;48.826;15.176;2022-11-02T08:15:40;23.70;65.70
37794;DHT22;23632;48.826;15.176;2022-11-02T08:18:13;23.70;65.70
37794;DHT22;23632;48.826;15.176;2022-11-02T08:20:42;23.70;65.60
37794;DHT22;23632;48.826;15.176;2022-11-02T08:23:12;23.70;65.70
37794;DHT22;23632;48.826;15.176;2022-11-02T08:25:41;23.70;65.70
37794;DHT22;23632;48.826;15.176;2022-11-02T08:28:19;23.70;65.60
37794;DHT22;23632;48.826;15.176;2022-11-02T08:30:48;23.70;65.60
37794;DHT22;23632;48.826;15.176;2022-11-02T08:33:16;23.70;65.60
37794;DHT22;23632;48.826;15.176;2022-11-02T08:35:46;23.70;65.70
37794;DHT22;23632;48.826;15.176;2022-11-02T08:38:13;23.70;65.60
37794;DHT22;23632;48.826;15.176;2022-11-02T08:40:41;23.70;65.60
37794;DHT22;23632;48.826;15.176;2022-11-02T08:43:10;23.70;65.60
37794;DHT22;23632;48.826;15.176;2022-11-02T08:45:41;23.70;65.60
37794;DHT22;23632;48.826;15.176;2022-11-02T08:48:30;23.70;65.50
37794;DHT22;23632;48.826;15.176;2022-11-02T08:50:57;23.70;65.50
37794;DHT22;23632;48.826;15.176;2022-11-02T08:53:25;23.80;65.60
37794;DHT22;23632;48.826;15.176;2022-11-02T08:55:52;23.80;65.60
37794;DHT22;23632;48.826;15.176;2022-11-02T08:58:19;23.80;65.60
37794;DHT22;23632;48.826;15.176;2022-11-02T09:00:46;23.80;65.60
37794;DHT22;23632;48.826;15.176;2022-11-02T09:03:14;23.80;65.60
37794;DHT22;23632;48.826;15.176;2022-11-02T09:05:47;23.70;65.50
37794;DHT22;23632;48.826;15.176;2022-11-02T09:08:17;23.80;65.60
37794;DHT22;23632;48.826;15.176;2022-11-02T09:10:48;23.80;65.60
37794;DHT22;23632;48.826;15.176;2022-11-02T09:13:18;23.80;65.60
37794;DHT22;23632;48.826;15.176;2022-11-02T09:15:53;23.80;65.50
37794;DHT22;23632;48.826;15.176;2022-11-02T09:18:22;23.80;65.50
37794;DHT22;23632;48.826;15.176;2022-11-02T09:20:49;23.80;65.50
37794;DHT22;23632;48.826;15.176;2022-11-02T09:23:19;23.90;65.60
37794;DHT22;23632;48.826;15.176;2022-11-02T09:25:47;23.90;65.60
37794;DHT22;23632;48.826;15.176;2022-11-02T09:28:15;23.80;65.50
37794;DHT22;23632;48.826;15.176;2022-11-02T09:30:42;23.90;65.60
37794;DHT22;23632;48.826;15.176;2022-11-02T09:33:10;23.90;65.60
37794;DHT22;23632;48.826;15.176;2022-11-02T09:35:46;23.90;65.60
37794;DHT22;23632;48.826;15.176;2022-11-02T09:38:15;23.90;65.50
37794;DHT22;23632;48.826;15.176;2022-11-02T09:40:50;23.90;65.50
37794;DHT22;23632;48.826;15.176;2022-11-02T09:48:51;23.90;65.50
37794;DHT22;23632;48.826;15.176;2022-11-02T09:52:10;23.90;66.30
37794;DHT22;23632;48.826;15.176;2022-11-02T09:54:38;23.90;65.40
37794;DHT22;23632;48.826;15.176;2022-11-02T09:57:19;24.00;65.50
37794;DHT22;23632;48.826;15.176;2022-11-02T09:59:52;24.00;65.50
37794;DHT22;23632;48.826;15.176;2022-11-02T10:05:31;24.00;65.50
37794;DHT22;23632;48.826;15.176;2022-11-02T10:08:35;24.00;65.50
37794;DHT22;23632;48.826;15.176;2022-11-02T10:14:33;24.00;65.50
37794;DHT22;23632;48.826;15.176;2022-11-02T10:17:24;24.00;65.40
37794;DHT22;23632;48.826;15.176;2022-11-02T10:19:56;24.00;65.40
37794;DHT22;23632;48.826;15.176;2022-11-02T10:22:29;24.00;65.50
37794;DHT22;23632;48.826;15.176;2022-11-02T10:25:02;24.00;65.40
37794;DHT22;23632;48.826;15.176;2022-11-02T10:27:37;24.00;65.40
37794;DHT22;23632;48.826;15.176;2022-11-02T10:30:20;24.00;65.40
37794;DHT22;23632;48.826;15.176;2022-11-02T10:32:51;24.00;65.50
37794;DHT22;23632;48.826;15.176;2022-11-02T10:39:01;23.90;66.30
37794;DHT22;23632;48.826;15.176;2022-11-02T10:45:19;24.00;65.30
37794;DHT22;23632;48.826;15.176;2022-11-02T10:51:11;24.00;65.30
37794;DHT22;23632;48.826;15.176;2022-11-02T10:53:41;24.00;65.30
37794;DHT22;23632;48.826;15.176;2022-11-02T10:56:23;24.00;65.30
37794;DHT22;23632;48.826;15.176;2022-11-02T10:59:22;24.00;65.40
37794;DHT22;23632;48.826;15.176;2022-11-02T11:04:29;24.00;65.40
37794;DHT22;23632;48.826;15.176;2022-11-02T11:07:06;24.00;65.40
37794;DHT22;23632;48.826;15.176;2022-11-02T11:09:51;24.00;65.40
37794;DHT22;23632;48.826;15.176;2022-11-02T11:12:31;24.00;65.40
37794;DHT22;23632;48.826;15.176;2022-11-02T11:15:01;24.00;65.30
37794;DHT22;23632;48.826;15.176;2022-11-02T11:17:49;24.00;65.40
37794;DHT22;23632;48.826;15.176;2022-11-02T11:20:38;24.00;65.40
37794;DHT22;23632;48.826;15.176;2022-11-02T11:23:18;24.00;65.40
37794;DHT22;23632;48.826;15.176;2022-11-02T11:25:59;24.00;65.30
37794;DHT22;23632;48.826;15.176;2022-11-02T11:28:53;24.00;65.30
37794;DHT22;23632;48.826;15.176;2022-11-02T11:31:22;24.00;65.30
37794;DHT22;23632;48.826;15.176;2022-11-02T11:33:56;24.00;65.30
37794;DHT22;23632;48.826;15.176;2022-11-02T11:36:33;24.00;65.30
37794;DHT22;23632;48.826;15.176;2022-11-02T11:41:51;24.00;65.30
37794;DHT22;23632;48.826;15.176;2022-11-02T11:44:19;24.00;65.40
37794;DHT22;23632;48.826;15.176;2022-11-02T11:46:50;24.00;66.30
37794;DHT22;23632;48.826;15.176;2022-11-02T11:49:29;24.00;65.30
37794;DHT22;23632;48.826;15.176;2022-11-02T11:52:22;24.00;65.30
37794;DHT22;23632;48.826;15.176;2022-11-02T11:54:59;24.00;65.30
37794;DHT22;23632;48.826;15.176;2022-11-02T11:57:34;24.00;65.30
37794;DHT22;23632;48.826;15.176;2022-11-02T12:00:25;24.00;65.30
37794;DHT22;23632;48.826;15.176;2022-11-02T12:03:11;24.00;65.30
37794;DHT22;23632;48.826;15.176;2022-11-02T12:05:49;24.00;65.30
37794;DHT22;23632;48.826;15.176;2022-11-02T12:35:32;24.00;65.30
37794;DHT22;23632;48.826;15.176;2022-11-02T12:38:43;24.00;65.40
37794;DHT22;23632;48.826;15.176;2022-11-02T12:41:22;24.00;65.40
37794;DHT22;23632;48.826;15.176;2022-11-02T12:47:30;24.00;65.30
37794;DHT22;23632;48.826;15.176;2022-11-02T12:55:52;24.00;65.30
37794;DHT22;23632;48.826;15.176;2022-11-02T12:58:25;24.00;65.30
37794;DHT22;23632;48.826;15.176;2022-11-02T13:04:11;24.00;65.40
37794;DHT22;23632;48.826;15.176;2022-11-02T13:06:49;24.00;65.40
37794;DHT22;23632;48.826;15.176;2022-11-02T13:12:09;24.00;65.40
37794;DHT22;23632;48.826;15.176;2022-11-02T13:14:43;24.00;65.30
37794;DHT22;23632;48.826;15.176;2022-11-02T13:17:22;24.00;65.30
37794;DHT22;23632;48.826;15.176;2022-11-02T13:20:25;24.00;65.40
37794;DHT22;23632;48.826;15.176;2022-11-02T13:23:14;24.00;65.40
37794;DHT22;23632;48.826;15.176;2022-11-02T13:25:49;24.00;65.40
37794;DHT22;23632;48.826;15.176;2022-11-02T13:31:19;24.00;65.40
37794;DHT22;23632;48.826;15.176;2022-11-02T13:33:54;24.00;65.30
37794;DHT22;23632;48.826;15.176;2022-11-02T13:36:22;24.00;65.40
37794;DHT22;23632;48.826;15.176;2022-11-02T13:38:57;24.00;65.40
37794;DHT22;23632;48.826;15.176;2022-11-02T13:50:16;24.00;65.40
37794;DHT22;23632;48.826;15.176;2022-11-02T13:52:46;24.00;65.40
37794;DHT22;23632;48.826;15.176;2022-11-02T13:55:22;24.00;65.40
37794;DHT22;23632;48.826;15.176;2022-11-02T13:57:56;24.00;65.30
37794;DHT22;23632;48.826;15.176;2022-11-02T14:00:28;24.00;65.30
37794;DHT22;23632;48.826;15.176;2022-11-02T14:03:33;24.00;65.30
37794;DHT22;23632;48.826;15.176;2022-11-02T14:06:12;24.00;65.40
37794;DHT22;23632;48.826;15.176;2022-11-02T14:08:47;24.00;65.30
37794;DHT22;23632;48.826;15.176;2022-11-02T14:22:11;24.00;65.30
37794;DHT22;23632;48.826;15.176;2022-11-02T14:38:20;24.00;65.30
37794;DHT22;23632;48.826;15.176;2022-11-02T14:47:14;24.00;65.30
37794;DHT22;23632;48.826;15.176;2022-11-02T14:49:51;24.00;65.30
37794;DHT22;23632;48.826;15.176;2022-11-02T14:52:28;24.00;65.30
37794;DHT22;23632;48.826;15.176;2022-11-02T14:55:00;24.00;65.30
37794;DHT22;23632;48.826;15.176;2022-11-02T14:57:37;24.00;65.30
37794;DHT22;23632;48.826;15.176;2022-11-02T15:02:44;24.00;65.30
37794;DHT22;23632;48.826;15.176;2022-11-02T15:05:32;24.00;65.40
37794;DHT22;23632;48.826;15.176;2022-11-02T15:08:07;24.00;65.30
37794;DHT22;23632;48.826;15.176;2022-11-02T15:10:44;24.00;65.30
37794;DHT22;23632;48.826;15.176;2022-11-02T15:18:38;24.00;65.30
37794;DHT22;23632;48.826;15.176;2022-11-02T15:23:51;24.00;65.30
37794;DHT22;23632;48.826;15.176;2022-11-02T15:29:41;24.00;65.30
37794;DHT22;23632;48.826;15.176;2022-11-02T15:32:19;24.00;65.30
37794;DHT22;23632;48.826;15.176;2022-11-02T15:34:53;24.00;65.30
37794;DHT22;23632;48.826;15.176;2022-11-02T15:37:23;24.00;65.30
37794;DHT22;23632;48.826;15.176;2022-11-02T15:40:00;24.00;65.30
37794;DHT22;23632;48.826;15.176;2022-11-02T15:42:42;24.00;65.30
37794;DHT22;23632;48.826;15.176;2022-11-02T15:48:41;24.00;65.30
37794;DHT22;23632;48.826;15.176;2022-11-02T15:51:55;24.00;65.30
37794;DHT22;23632;48.826;15.176;2022-11-02T16:01:04;24.00;65.30
37794;DHT22;23632;48.826;15.176;2022-11-02T16:03:36;23.90;66.20
37794;DHT22;23632;48.826;15.176;2022-11-02T16:06:04;23.90;65.20
37794;DHT22;23632;48.826;15.176;2022-11-02T16:08:34;23.90;65.30
37794;DHT22;23632;48.826;15.176;2022-11-02T16:11:18;23.90;65.30
37794;DHT22;23632;48.826;15.176;2022-11-02T16:13:46;23.90;65.30
37794;DHT22;23632;48.826;15.176;2022-11-02T16:16:48;23.90;65.30
37794;DHT22;23632;48.826;15.176;2022-11-02T16:19:20;23.90;65.30
37794;DHT22;23632;48.826;15.176;2022-11-02T16:21:48;23.90;65.30
37794;DHT22;23632;48.826;15.176;2022-11-02T16:24:15;23.90;65.30
37794;DHT22;23632;48.826;15.176;2022-11-02T16:26:44;23.90;65.30
37794;DHT22;23632;48.826;15.176;2022-11-02T16:29:29;23.90;65.30
37794;DHT22;23632;48.826;15.176;2022-11-02T16:31:57;23.90;65.30
37794;DHT22;23632;48.826;15.176;2022-11-02T16:34:28;23.90;65.40
37794;DHT22;23632;48.826;15.176;2022-11-02T16:36:57;23.90;65.30
37794;DHT22;23632;48.826;15.176;2022-11-02T16:39:31;23.90;65.30
37794;DHT22;23632;48.826;15.176;2022-11-02T16:42:16;23.90;65.30
37794;DHT22;23632;48.826;15.176;2022-11-02T16:44:59;23.90;65.30
37794;DHT22;23632;48.826;15.176;2022-11-02T16:47:40;23.90;65.30
37794;DHT22;23632;48.826;15.176;2022-11-02T16:52:53;23.90;65.30
37794;DHT22;23632;48.826;15.176;2022-11-02T16:55:34;23.90;65.30
37794;DHT22;23632;48.826;15.176;2022-11-02T16:58:11;23.90;65.30
37794;DHT22;23632;48.826;15.176;2022-11-02T17:00:58;23.90;65.30
37794;DHT22;23632;48.826;15.176;2022-11-02T17:03:32;23.80;65.20
37794;DHT22;23632;48.826;15.176;2022-11-02T17:06:03;23.90;65.30
37794;DHT22;23632;48.826;15.176;2022-11-02T17:08:33;23.90;65.30
37794;DHT22;23632;48.826;15.176;2022-11-02T17:11:03;23.90;65.30
37794;DHT22;23632;48.826;15.176;2022-11-02T17:13:36;23.90;65.30
37794;DHT22;23632;48.826;15.176;2022-11-02T17:16:10;23.90;65.30
37794;DHT22;23632;48.826;15.176;2022-11-02T17:18:38;23.90;65.30
37794;DHT22;23632;48.826;15.176;2022-11-02T17:23:44;23.90;65.20
37794;DHT22;23632;48.826;15.176;2022-11-02T17:28:54;23.90;65.40
37794;DHT22;23632;48.826;15.176;2022-11-02T17:31:30;23.80;66.10
37794;DHT22;23632;48.826;15.176;2022-11-02T17:34:18;23.90;65.30
37794;DHT22;23632;48.826;15.176;2022-11-02T17:36:47;23.80;65.30
37794;DHT22;23632;48.826;15.176;2022-11-02T17:39:17;23.90;65.30
37794;DHT22;23632;48.826;15.176;2022-11-02T17:41:51;23.90;65.30
37794;DHT22;23632;48.826;15.176;2022-11-02T17:44:38;23.80;65.20
37794;DHT22;23632;48.826;15.176;2022-11-02T17:47:11;23.80;65.20
37794;DHT22;23632;48.826;15.176;2022-11-02T17:49:41;23.80;65.20
37794;DHT22;23632;48.826;15.176;2022-11-02T17:52:13;23.80;65.30
37794;DHT22;23632;48.826;15.176;2022-11-02T17:54:42;23.80;65.20
37794;DHT22;23632;48.826;15.176;2022-11-02T17:57:15;23.80;65.20
37794;DHT22;23632;48.826;15.176;2022-11-02T17:59:44;23.80;65.20
37794;DHT22;23632;48.826;15.176;2022-11-02T18:02:13;23.80;65.20
37794;DHT22;23632;48.826;15.176;2022-11-02T18:04:41;23.80;65.20
37794;DHT22;23632;48.826;15.176;2022-11-02T18:07:14;23.80;65.20
37794;DHT22;23632;48.826;15.176;2022-11-02T18:09:41;23.80;65.20
37794;DHT22;23632;48.826;15.176;2022-11-02T18:12:13;23.80;65.20
37794;DHT22;23632;48.826;15.176;2022-11-02T18:14:42;23.80;65.10
37794;DHT22;23632;48.826;15.176;2022-11-02T18:17:09;23.80;65.20
37794;DHT22;23632;48.826;15.176;2022-11-02T18:19:36;23.80;65.20
37794;DHT22;23632;48.826;15.176;2022-11-02T18:22:04;23.80;65.20
37794;DHT22;23632;48.826;15.176;2022-11-02T18:24:31;23.80;65.20
37794;DHT22;23632;48.826;15.176;2022-11-02T18:26:58;23.80;65.20
37794;DHT22;23632;48.826;15.176;2022-11-02T18:29:26;23.80;65.10
37794;DHT22;23632;48.826;15.176;2022-11-02T18:31:53;23.80;65.10
37794;DHT22;23632;48.826;15.176;2022-11-02T18:34:20;23.80;65.20
37794;DHT22;23632;48.826;15.176;2022-11-02T18:36:47;23.80;65.20
37794;DHT22;23632;48.826;15.176;2022-11-02T18:39:15;23.80;65.20
37794;DHT22;23632;48.826;15.176;2022-11-02T18:41:42;23.80;65.20
37794;DHT22;23632;48.826;15.176;2022-11-02T18:44:09;23.80;66.10